createdAt,value
2018-12-06T00:00:24.892Z,0.00
2018-12-06T00:01:25.104Z,0.00
2018-12-06T00:02:25.095Z,0.00
2018-12-06T00:03:25.071Z,0.00
2018-12-06T00:04:24.878Z,0.00
2018-12-06T00:05:25.061Z,0.00
2018-12-06T00:06:25.068Z,0.00
2018-12-06T00:07:24.881Z,0.00
2018-12-06T00:08:25.051Z,0.00
2018-12-06T00:09:24.844Z,0.00
2018-12-06T00:10:24.867Z,0.00
2018-12-06T00:11:24.856Z,0.00
2018-12-06T00:12:24.839Z,0.00
2018-12-06T00:13:24.834Z,0.00
2018-12-06T00:14:24.843Z,0.00
2018-12-06T00:15:24.852Z,0.00
2018-12-06T00:16:25.026Z,0.00
2018-12-06T00:17:24.828Z,0.00
2018-12-06T00:18:24.827Z,0.00
2018-12-06T00:19:24.820Z,0.00
2018-12-06T00:20:24.818Z,0.00
2018-12-06T00:21:24.817Z,0.00
2018-12-06T00:22:24.830Z,0.00
2018-12-06T00:23:24.825Z,0.00
2018-12-06T00:24:24.792Z,0.00
2018-12-06T00:25:25.003Z,0.00
2018-12-06T00:26:24.994Z,0.00
2018-12-06T00:27:24.783Z,0.00
2018-12-06T00:28:24.809Z,0.00
2018-12-06T00:29:24.780Z,0.00
2018-12-06T00:30:24.777Z,0.00
2018-12-06T00:31:24.771Z,0.00
2018-12-06T00:32:24.777Z,0.00
2018-12-06T00:33:24.786Z,0.00
2018-12-06T00:34:24.993Z,0.00
2018-12-06T00:35:24.774Z,0.00
2018-12-06T00:36:24.971Z,0.00
2018-12-06T00:37:24.766Z,0.00
2018-12-06T00:38:24.766Z,0.00
2018-12-06T00:39:24.767Z,0.00
2018-12-06T00:40:24.742Z,0.00
2018-12-06T00:41:24.746Z,0.00
2018-12-06T00:42:24.732Z,0.00
2018-12-06T00:43:24.746Z,0.00
2018-12-06T00:44:24.728Z,0.00
2018-12-06T00:45:24.727Z,0.00
2018-12-06T00:46:24.736Z,0.00
2018-12-06T00:47:24.729Z,0.00
2018-12-06T00:48:24.720Z,0.00
2018-12-06T00:49:24.943Z,0.00
2018-12-06T00:50:24.724Z,0.00
2018-12-06T00:51:24.720Z,0.00
2018-12-06T00:52:24.717Z,0.00
2018-12-06T00:53:24.904Z,0.00
2018-12-06T00:54:24.723Z,0.00
2018-12-06T00:55:24.708Z,0.00
2018-12-06T00:56:24.686Z,0.00
2018-12-06T00:57:24.892Z,0.00
2018-12-06T00:58:24.889Z,0.00
2018-12-06T00:59:24.677Z,0.00
2018-12-06T01:00:24.687Z,0.00
2018-12-06T01:01:24.678Z,0.00
2018-12-06T01:02:24.670Z,0.00
2018-12-06T01:03:24.669Z,0.00
2018-12-06T01:04:24.677Z,0.00
2018-12-06T01:05:24.660Z,0.00
2018-12-06T01:06:24.657Z,0.00
2018-12-06T01:07:24.684Z,0.00
2018-12-06T01:08:24.848Z,0.00
2018-12-06T01:09:24.659Z,0.00
2018-12-06T01:10:24.668Z,0.00
2018-12-06T01:11:24.654Z,0.00
2018-12-06T01:12:24.650Z,0.00
2018-12-06T01:13:24.634Z,0.00
2018-12-06T01:14:24.645Z,0.00
2018-12-06T01:15:24.838Z,0.00
2018-12-06T01:16:24.637Z,0.00
2018-12-06T01:17:24.629Z,0.00
2018-12-06T01:18:24.628Z,0.00
2018-12-06T01:19:24.611Z,0.00
2018-12-06T01:20:24.607Z,0.00
2018-12-06T01:21:24.612Z,0.00
2018-12-06T01:22:24.597Z,0.00
2018-12-06T01:23:24.592Z,0.00
2018-12-06T01:24:24.810Z,0.00
2018-12-06T01:25:24.586Z,0.00
2018-12-06T01:26:24.582Z,0.00
2018-12-06T01:27:24.601Z,0.00
2018-12-06T01:28:24.580Z,0.00
2018-12-06T01:29:24.576Z,0.00
2018-12-06T01:30:24.570Z,0.00
2018-12-06T01:31:24.575Z,0.00
2018-12-06T01:32:24.569Z,0.00
2018-12-06T01:33:24.566Z,0.00
2018-12-06T01:34:24.562Z,0.00
2018-12-06T01:35:24.559Z,0.00
2018-12-06T01:36:24.557Z,0.00
2018-12-06T01:37:24.542Z,0.00
2018-12-06T01:38:24.554Z,0.00
2018-12-06T01:39:24.539Z,0.00
2018-12-06T01:40:24.741Z,0.00
2018-12-06T01:41:24.532Z,0.00
2018-12-06T01:42:24.527Z,0.00
2018-12-06T01:43:24.531Z,0.00
2018-12-06T01:44:24.523Z,0.00
2018-12-06T01:45:24.531Z,0.00
2018-12-06T01:46:24.717Z,0.00
2018-12-06T01:47:24.713Z,0.00
2018-12-06T01:48:24.507Z,0.00
2018-12-06T01:49:24.516Z,0.00
2018-12-06T01:50:24.519Z,0.00
2018-12-06T01:51:24.720Z,0.00
2018-12-06T01:52:24.511Z,0.00
2018-12-06T01:53:24.518Z,0.00
2018-12-06T01:54:24.497Z,0.00
2018-12-06T01:55:24.484Z,0.00
2018-12-06T01:56:24.682Z,0.00
2018-12-06T01:57:24.491Z,0.00
2018-12-06T01:58:24.479Z,0.00
2018-12-06T01:59:24.474Z,0.00
2018-12-06T02:00:24.666Z,0.00
2018-12-06T02:01:24.475Z,0.00
2018-12-06T02:02:24.463Z,0.00
2018-12-06T02:03:24.457Z,0.00
2018-12-06T02:04:24.670Z,0.00
2018-12-06T02:05:24.453Z,0.00
2018-12-06T02:06:24.458Z,0.00
2018-12-06T02:07:24.451Z,0.00
2018-12-06T02:08:24.446Z,0.00
2018-12-06T02:09:24.433Z,0.00
2018-12-06T02:10:24.438Z,0.00
2018-12-06T02:11:24.434Z,0.00
2018-12-06T02:12:24.421Z,0.00
2018-12-06T02:13:24.426Z,0.00
2018-12-06T02:14:24.431Z,0.00
2018-12-06T02:15:24.416Z,0.00
2018-12-06T02:16:24.630Z,0.00
2018-12-06T02:17:24.415Z,0.00
2018-12-06T02:18:24.412Z,0.00
2018-12-06T02:19:24.401Z,0.00
2018-12-06T02:20:24.411Z,0.00
2018-12-06T02:21:24.596Z,0.00
2018-12-06T02:22:24.395Z,0.00
2018-12-06T02:23:24.385Z,0.00
2018-12-06T02:24:24.395Z,0.00
2018-12-06T02:25:24.401Z,0.00
2018-12-06T02:26:24.378Z,0.00
2018-12-06T02:27:24.373Z,0.00
2018-12-06T02:28:24.389Z,0.00
2018-12-06T02:29:24.366Z,0.00
2018-12-06T02:30:24.371Z,0.00
2018-12-06T02:31:24.362Z,0.00
2018-12-06T02:32:24.584Z,0.00
2018-12-06T02:33:24.359Z,0.00
2018-12-06T02:34:24.362Z,0.00
2018-12-06T02:35:24.351Z,0.00
2018-12-06T02:36:24.350Z,0.00
2018-12-06T02:37:24.345Z,0.00
2018-12-06T02:38:24.354Z,0.00
2018-12-06T02:39:24.339Z,0.00
2018-12-06T02:40:24.543Z,0.00
2018-12-06T02:41:24.541Z,0.00
2018-12-06T02:42:24.336Z,0.00
2018-12-06T02:43:24.337Z,0.00
2018-12-06T02:44:24.538Z,0.00
2018-12-06T02:45:24.313Z,0.00
2018-12-06T02:46:24.322Z,0.00
2018-12-06T02:47:24.327Z,0.00
2018-12-06T02:48:24.322Z,0.00
2018-12-06T02:49:24.306Z,0.00
2018-12-06T02:50:24.306Z,0.00
2018-12-06T02:51:24.293Z,0.00
2018-12-06T02:52:24.311Z,0.00
2018-12-06T02:53:24.292Z,0.00
2018-12-06T02:54:24.495Z,0.00
2018-12-06T02:55:24.488Z,0.00
2018-12-06T02:56:24.298Z,0.00
2018-12-06T02:57:24.277Z,0.00
2018-12-06T02:58:24.283Z,0.00
2018-12-06T02:59:24.288Z,0.00
2018-12-06T03:00:24.285Z,0.00
2018-12-06T03:01:24.392Z,0.00
2018-12-06T03:02:24.261Z,0.00
2018-12-06T03:03:24.271Z,0.00
2018-12-06T03:04:24.478Z,0.00
2018-12-06T03:05:24.256Z,0.00
2018-12-06T03:06:24.463Z,0.00
2018-12-06T03:07:24.248Z,0.00
2018-12-06T03:08:24.459Z,0.00
2018-12-06T03:09:24.248Z,0.00
2018-12-06T03:10:24.232Z,0.00
2018-12-06T03:11:24.453Z,0.00
2018-12-06T03:12:24.442Z,0.00
2018-12-06T03:13:24.226Z,0.00
2018-12-06T03:14:24.216Z,0.00
2018-12-06T03:15:24.226Z,0.00
2018-12-06T03:16:24.231Z,0.00
2018-12-06T03:17:24.221Z,0.00
2018-12-06T03:18:24.218Z,0.00
2018-12-06T03:19:24.207Z,0.00
2018-12-06T03:20:24.211Z,0.00
2018-12-06T03:21:24.409Z,0.00
2018-12-06T03:22:24.196Z,0.00
2018-12-06T03:23:24.193Z,0.00
2018-12-06T03:24:24.192Z,0.00
2018-12-06T03:25:24.187Z,0.00
2018-12-06T03:26:24.206Z,0.00
2018-12-06T03:27:24.185Z,0.00
2018-12-06T03:28:24.182Z,0.00
2018-12-06T03:29:24.192Z,0.00
2018-12-06T03:30:24.185Z,0.00
2018-12-06T03:31:24.373Z,0.00
2018-12-06T03:32:24.388Z,0.00
2018-12-06T03:33:24.367Z,0.00
2018-12-06T03:34:24.185Z,0.00
2018-12-06T03:35:24.366Z,0.00
2018-12-06T03:36:24.156Z,0.00
2018-12-06T03:37:24.150Z,0.00
2018-12-06T03:38:24.158Z,0.00
2018-12-06T03:39:24.362Z,0.00
2018-12-06T03:40:24.160Z,0.00
2018-12-06T03:41:24.134Z,0.00
2018-12-06T03:42:24.138Z,0.00
2018-12-06T03:43:24.131Z,0.00
2018-12-06T03:44:24.135Z,0.00
2018-12-06T03:45:24.130Z,0.00
2018-12-06T03:46:24.121Z,0.00
2018-12-06T03:47:24.324Z,0.00
2018-12-06T03:48:24.312Z,0.00
2018-12-06T03:49:24.111Z,0.00
2018-12-06T03:50:24.114Z,0.00
2018-12-06T03:51:24.104Z,0.00
2018-12-06T03:52:24.108Z,0.00
2018-12-06T03:53:24.105Z,0.00
2018-12-06T03:54:24.107Z,0.00
2018-12-06T03:55:24.107Z,0.00
2018-12-06T03:56:24.103Z,0.00
2018-12-06T03:57:24.083Z,0.00
2018-12-06T03:58:24.112Z,0.00
2018-12-06T03:59:24.289Z,0.00
2018-12-06T04:00:24.082Z,0.00
2018-12-06T04:01:24.299Z,0.00
2018-12-06T04:02:24.289Z,0.00
2018-12-06T04:03:24.098Z,0.00
2018-12-06T04:04:24.062Z,0.00
2018-12-06T04:05:24.076Z,0.00
2018-12-06T04:06:24.068Z,0.00
2018-12-06T04:07:24.074Z,0.00
2018-12-06T04:08:24.065Z,0.00
2018-12-06T04:09:24.057Z,0.00
2018-12-06T04:10:24.074Z,0.00
2018-12-06T04:11:24.051Z,0.00
2018-12-06T04:12:24.040Z,0.00
2018-12-06T04:13:24.040Z,0.00
2018-12-06T04:14:24.037Z,0.00
2018-12-06T04:15:24.038Z,0.00
2018-12-06T04:16:24.233Z,0.00
2018-12-06T04:17:24.037Z,0.00
2018-12-06T04:18:24.229Z,0.00
2018-12-06T04:19:24.223Z,0.00
2018-12-06T04:20:24.023Z,0.00
2018-12-06T04:21:24.038Z,0.00
2018-12-06T04:22:24.046Z,0.00
2018-12-06T04:23:24.246Z,0.00
2018-12-06T04:24:24.017Z,0.00
2018-12-06T04:25:24.008Z,0.00
2018-12-06T04:26:24.210Z,0.00
2018-12-06T04:27:23.997Z,0.00
2018-12-06T04:28:24.011Z,0.00
2018-12-06T04:29:23.991Z,0.00
2018-12-06T04:30:23.992Z,0.00
2018-12-06T04:31:23.990Z,0.00
2018-12-06T04:32:23.986Z,0.00
2018-12-06T04:33:23.984Z,0.00
2018-12-06T04:34:23.979Z,0.00
2018-12-06T04:35:23.973Z,0.00
2018-12-06T04:36:24.199Z,0.00
2018-12-06T04:37:24.179Z,0.00
2018-12-06T04:38:24.165Z,0.00
2018-12-06T04:39:23.968Z,0.00
2018-12-06T04:40:23.966Z,0.00
2018-12-06T04:41:23.961Z,0.00
2018-12-06T04:42:23.953Z,0.00
2018-12-06T04:43:23.957Z,0.00
2018-12-06T04:44:24.164Z,0.00
2018-12-06T04:45:23.947Z,0.00
2018-12-06T04:46:24.163Z,0.00
2018-12-06T04:47:24.144Z,0.00
2018-12-06T04:48:23.948Z,0.00
2018-12-06T04:49:23.944Z,0.00
2018-12-06T04:50:23.928Z,0.00
2018-12-06T04:51:23.934Z,0.00
2018-12-06T04:52:23.923Z,0.00
2018-12-06T04:53:23.921Z,0.00
2018-12-06T04:54:23.920Z,0.00
2018-12-06T04:55:23.914Z,0.00
2018-12-06T04:56:23.925Z,0.00
2018-12-06T04:57:23.907Z,0.00
2018-12-06T04:58:24.125Z,0.00
2018-12-06T04:59:23.915Z,0.00
2018-12-06T05:00:23.917Z,0.00
2018-12-06T05:01:23.898Z,0.00
2018-12-06T05:02:23.904Z,0.00
2018-12-06T05:03:23.923Z,0.00
2018-12-06T05:04:23.887Z,0.00
2018-12-06T05:05:23.888Z,0.00
2018-12-06T05:06:23.888Z,0.00
2018-12-06T05:07:23.880Z,0.00
2018-12-06T05:08:23.890Z,0.00
2018-12-06T05:09:23.894Z,0.00
2018-12-06T05:10:23.869Z,0.00
2018-12-06T05:11:23.901Z,0.00
2018-12-06T05:12:24.098Z,0.00
2018-12-06T05:13:23.868Z,0.00
2018-12-06T05:14:23.868Z,0.00
2018-12-06T05:15:24.066Z,0.00
2018-12-06T05:16:24.075Z,0.00
2018-12-06T05:17:23.853Z,0.00
2018-12-06T05:18:23.852Z,0.00
2018-12-06T05:19:23.847Z,0.00
2018-12-06T05:20:23.839Z,0.00
2018-12-06T05:21:23.854Z,0.00
2018-12-06T05:22:23.838Z,0.00
2018-12-06T05:23:23.830Z,0.00
2018-12-06T05:24:23.827Z,0.00
2018-12-06T05:25:23.846Z,0.00
2018-12-06T05:26:23.824Z,0.00
2018-12-06T05:27:23.823Z,0.00
2018-12-06T05:28:23.819Z,0.00
2018-12-06T05:29:24.025Z,0.00
2018-12-06T05:30:23.812Z,0.00
2018-12-06T05:31:23.809Z,0.00
2018-12-06T05:32:23.816Z,0.00
2018-12-06T05:33:23.861Z,0.00
2018-12-06T05:34:23.825Z,0.00
2018-12-06T05:35:23.800Z,0.00
2018-12-06T05:36:23.810Z,0.00
2018-12-06T05:37:23.791Z,0.00
2018-12-06T05:38:23.789Z,0.00
2018-12-06T05:39:23.783Z,0.00
2018-12-06T05:40:23.785Z,0.00
2018-12-06T05:41:23.780Z,0.00
2018-12-06T05:42:23.777Z,0.00
2018-12-06T05:43:23.768Z,0.00
2018-12-06T05:44:23.769Z,0.00
2018-12-06T05:45:23.759Z,0.00
2018-12-06T05:46:23.763Z,0.00
2018-12-06T05:47:23.759Z,0.00
2018-12-06T05:48:23.985Z,0.00
2018-12-06T05:49:23.757Z,0.00
2018-12-06T05:50:23.756Z,0.00
2018-12-06T05:51:23.759Z,0.00
2018-12-06T05:52:23.941Z,0.00
2018-12-06T05:53:23.736Z,0.00
2018-12-06T05:54:23.751Z,0.00
2018-12-06T05:55:23.741Z,0.00
2018-12-06T05:56:23.735Z,0.00
2018-12-06T05:57:23.738Z,0.00
2018-12-06T05:58:23.732Z,0.00
2018-12-06T05:59:23.728Z,0.00
2018-12-06T06:00:23.716Z,0.00
2018-12-06T06:01:23.725Z,0.00
2018-12-06T06:02:23.722Z,0.00
2018-12-06T06:03:23.919Z,0.00
2018-12-06T06:04:23.706Z,0.00
2018-12-06T06:05:23.715Z,0.00
2018-12-06T06:06:23.714Z,0.00
2018-12-06T06:07:23.695Z,0.00
2018-12-06T06:08:23.700Z,0.00
2018-12-06T06:09:25.639Z,0.00
2018-12-06T06:10:23.688Z,0.00
2018-12-06T06:11:23.683Z,0.00
2018-12-06T06:12:23.690Z,0.00
2018-12-06T06:13:23.686Z,0.00
2018-12-06T06:14:23.673Z,0.00
2018-12-06T06:15:23.676Z,0.00
2018-12-06T06:16:23.880Z,0.00
2018-12-06T06:17:23.669Z,0.00
2018-12-06T06:18:23.863Z,0.00
2018-12-06T06:19:23.870Z,0.00
2018-12-06T06:20:23.886Z,0.00
2018-12-06T06:21:23.660Z,0.00
2018-12-06T06:22:23.865Z,0.00
2018-12-06T06:23:23.662Z,0.00
2018-12-06T06:24:23.648Z,0.00
2018-12-06T06:25:23.646Z,0.00
2018-12-06T06:26:23.650Z,0.00
2018-12-06T06:27:23.837Z,0.00
2018-12-06T06:28:23.641Z,0.00
2018-12-06T06:29:23.835Z,0.00
2018-12-06T06:30:23.632Z,0.00
2018-12-06T06:31:23.629Z,0.00
2018-12-06T06:32:23.619Z,0.00
2018-12-06T06:33:23.613Z,0.00
2018-12-06T06:34:23.611Z,0.00
2018-12-06T06:35:23.615Z,0.00
2018-12-06T06:36:23.622Z,0.00
2018-12-06T06:37:23.812Z,0.00
2018-12-06T06:38:23.610Z,0.00
2018-12-06T06:39:23.821Z,0.00
2018-12-06T06:40:23.595Z,0.00
2018-12-06T06:41:23.598Z,0.00
2018-12-06T06:42:23.611Z,0.00
2018-12-06T06:43:23.617Z,0.00
2018-12-06T06:44:23.587Z,0.00
2018-12-06T06:45:23.785Z,0.00
2018-12-06T06:46:23.605Z,0.00
2018-12-06T06:47:23.811Z,0.00
2018-12-06T06:48:23.609Z,0.00
2018-12-06T06:49:23.783Z,0.00
2018-12-06T06:50:23.587Z,0.00
2018-12-06T06:51:23.567Z,0.00
2018-12-06T06:52:23.559Z,0.00
2018-12-06T06:53:23.556Z,0.00
2018-12-06T06:54:23.552Z,0.00
2018-12-06T06:55:23.558Z,0.00
2018-12-06T06:56:23.553Z,0.00
2018-12-06T06:57:23.766Z,0.00
2018-12-06T06:58:23.552Z,0.00
2018-12-06T06:59:26.262Z,0.00
2018-12-06T07:00:23.538Z,0.00
2018-12-06T07:01:23.540Z,0.00
2018-12-06T07:02:23.538Z,0.00
2018-12-06T07:03:23.541Z,0.00
2018-12-06T07:04:23.531Z,0.00
2018-12-06T07:05:23.521Z,0.00
2018-12-06T07:06:23.535Z,0.00
2018-12-06T07:07:23.515Z,0.00
2018-12-06T07:08:23.523Z,0.00
2018-12-06T07:09:23.532Z,4.00
2018-12-06T07:10:23.530Z,0.00
2018-12-06T07:11:23.729Z,4.00
2018-12-06T07:12:23.536Z,4.00
2018-12-06T07:13:23.711Z,4.00
2018-12-06T07:14:23.507Z,0.00
2018-12-06T07:15:23.702Z,0.00
2018-12-06T07:16:23.506Z,0.00
2018-12-06T07:17:23.497Z,4.00
2018-12-06T07:18:23.489Z,4.00
2018-12-06T07:19:23.504Z,4.00
2018-12-06T07:20:23.684Z,4.00
2018-12-06T07:21:23.488Z,4.00
2018-12-06T07:22:23.477Z,4.00
2018-12-06T07:23:23.475Z,8.00
2018-12-06T07:24:23.465Z,8.00
2018-12-06T07:25:23.469Z,4.00
2018-12-06T07:26:23.479Z,4.00
2018-12-06T07:27:23.475Z,4.00
2018-12-06T07:28:23.455Z,8.00
2018-12-06T07:29:23.462Z,8.00
2018-12-06T07:30:23.456Z,8.00
2018-12-06T07:31:23.446Z,8.00
2018-12-06T07:32:23.452Z,8.00
2018-12-06T07:33:23.441Z,8.00
2018-12-06T07:34:23.435Z,8.00
2018-12-06T07:35:23.444Z,8.00
2018-12-06T07:36:23.437Z,12.00
2018-12-06T07:37:23.437Z,12.00
2018-12-06T07:38:23.442Z,12.00
2018-12-06T07:39:23.430Z,12.00
2018-12-06T07:40:23.427Z,12.00
2018-12-06T07:41:23.638Z,16.00
2018-12-06T07:42:23.413Z,16.00
2018-12-06T07:43:23.417Z,12.00
2018-12-06T07:44:23.413Z,16.00
2018-12-06T07:45:23.406Z,16.00
2018-12-06T07:46:23.418Z,20.00
2018-12-06T07:47:23.403Z,20.00
2018-12-06T07:48:23.406Z,20.00
2018-12-06T07:49:23.402Z,20.00
2018-12-06T07:50:23.401Z,20.00
2018-12-06T07:51:23.392Z,20.00
2018-12-06T07:52:23.397Z,24.00
2018-12-06T07:53:23.387Z,20.00
2018-12-06T07:54:23.388Z,24.00
2018-12-06T07:55:23.393Z,20.00
2018-12-06T07:56:23.379Z,20.00
2018-12-06T07:57:23.389Z,20.00
2018-12-06T07:58:23.377Z,20.00
2018-12-06T07:59:23.368Z,24.00
2018-12-06T08:00:23.573Z,24.00
2018-12-06T08:01:23.379Z,24.00
2018-12-06T08:02:23.378Z,24.00
2018-12-06T08:03:23.360Z,24.00
2018-12-06T08:04:23.365Z,28.00
2018-12-06T08:05:23.351Z,28.00
2018-12-06T08:06:23.364Z,28.00
2018-12-06T08:07:23.367Z,24.00
2018-12-06T08:08:23.344Z,28.00
2018-12-06T08:09:23.353Z,28.00
2018-12-06T08:10:23.357Z,32.00
2018-12-06T08:11:23.547Z,32.00
2018-12-06T08:12:23.349Z,32.00
2018-12-06T08:13:23.337Z,36.00
2018-12-06T08:14:23.338Z,36.00
2018-12-06T08:15:23.350Z,36.00
2018-12-06T08:16:23.333Z,40.00
2018-12-06T08:17:23.322Z,40.00
2018-12-06T08:18:23.321Z,44.00
2018-12-06T08:19:23.323Z,44.00
2018-12-06T08:20:23.540Z,48.00
2018-12-06T08:21:23.305Z,60.00
2018-12-06T08:22:23.314Z,64.00
2018-12-06T08:23:23.307Z,68.00
2018-12-06T08:24:23.304Z,68.00
2018-12-06T08:25:23.307Z,68.00
2018-12-06T08:26:23.307Z,64.00
2018-12-06T08:27:23.493Z,68.00
2018-12-06T08:28:23.294Z,76.00
2018-12-06T08:29:23.303Z,76.00
2018-12-06T08:30:23.292Z,76.00
2018-12-06T08:31:23.287Z,80.00
2018-12-06T08:32:23.286Z,76.00
2018-12-06T08:33:23.280Z,80.00
2018-12-06T08:34:23.291Z,80.00
2018-12-06T08:35:23.287Z,84.00
2018-12-06T08:36:23.278Z,84.00
2018-12-06T08:37:23.291Z,84.00
2018-12-06T08:38:23.296Z,88.00
2018-12-06T08:39:23.273Z,84.00
2018-12-06T08:40:23.279Z,84.00
2018-12-06T08:41:23.273Z,76.00
2018-12-06T08:42:23.254Z,76.00
2018-12-06T08:43:23.451Z,68.00
2018-12-06T08:44:23.276Z,68.00
2018-12-06T08:45:23.254Z,60.00
2018-12-06T08:46:23.264Z,56.00
2018-12-06T08:47:23.249Z,56.00
2018-12-06T08:48:23.460Z,64.00
2018-12-06T08:49:23.254Z,72.00
2018-12-06T08:50:23.504Z,72.00
2018-12-06T08:51:23.229Z,76.00
2018-12-06T08:52:23.449Z,72.00
2018-12-06T08:53:23.236Z,68.00
2018-12-06T08:54:23.226Z,72.00
2018-12-06T08:55:23.422Z,76.00
2018-12-06T08:56:23.217Z,88.00
2018-12-06T08:57:23.222Z,100.00
2018-12-06T08:58:23.213Z,84.00
2018-12-06T08:59:23.236Z,84.00
2018-12-06T09:00:23.227Z,80.00
2018-12-06T09:01:23.205Z,80.00
2018-12-06T09:02:23.234Z,72.00
2018-12-06T09:03:23.417Z,68.00
2018-12-06T09:04:23.201Z,64.00
2018-12-06T09:05:23.221Z,60.00
2018-12-06T09:06:23.197Z,64.00
2018-12-06T09:07:23.186Z,60.00
2018-12-06T09:08:23.189Z,56.00
2018-12-06T09:09:23.385Z,64.00
2018-12-06T09:10:23.197Z,76.00
2018-12-06T09:11:23.387Z,92.00
2018-12-06T09:12:23.191Z,108.00
2018-12-06T09:13:23.174Z,120.00
2018-12-06T09:14:23.172Z,128.00
2018-12-06T09:15:23.179Z,128.00
2018-12-06T09:16:23.184Z,112.00
2018-12-06T09:17:23.383Z,116.00
2018-12-06T09:18:23.179Z,140.00
2018-12-06T09:19:23.369Z,152.00
2018-12-06T09:20:23.173Z,164.00
2018-12-06T09:21:23.157Z,188.00
2018-12-06T09:22:24.463Z,204.00
2018-12-06T09:23:23.161Z,212.00
2018-12-06T09:24:23.352Z,208.00
2018-12-06T09:25:23.156Z,208.00
2018-12-06T09:26:23.159Z,216.00
2018-12-06T09:27:23.149Z,204.00
2018-12-06T09:28:23.145Z,220.00
2018-12-06T09:29:23.132Z,236.00
2018-12-06T09:30:23.140Z,232.00
2018-12-06T09:31:23.148Z,236.00
2018-12-06T09:32:23.127Z,240.00
2018-12-06T09:33:23.135Z,236.00
2018-12-06T09:34:23.125Z,236.00
2018-12-06T09:35:23.139Z,224.00
2018-12-06T09:36:23.122Z,216.00
2018-12-06T09:37:23.123Z,276.00
2018-12-06T09:38:23.144Z,260.00
2018-12-06T09:39:23.124Z,244.00
2018-12-06T09:40:23.123Z,220.00
2018-12-06T09:41:23.105Z,220.00
2018-12-06T09:42:23.324Z,236.00
2018-12-06T09:43:23.101Z,220.00
2018-12-06T09:44:23.304Z,220.00
2018-12-06T09:45:23.295Z,240.00
2018-12-06T09:46:23.122Z,264.00
2018-12-06T09:47:23.098Z,276.00
2018-12-06T09:48:23.087Z,316.00
2018-12-06T09:49:23.308Z,340.00
2018-12-06T09:50:23.078Z,340.00
2018-12-06T09:51:23.280Z,352.00
2018-12-06T09:52:23.082Z,348.00
2018-12-06T09:53:23.079Z,340.00
2018-12-06T09:54:23.070Z,324.00
2018-12-06T09:55:23.077Z,328.00
2018-12-06T09:56:23.077Z,308.00
2018-12-06T09:57:23.065Z,316.00
2018-12-06T09:58:23.063Z,292.00
2018-12-06T09:59:23.068Z,280.00
2018-12-06T10:00:23.084Z,232.00
2018-12-06T10:01:23.064Z,232.00
2018-12-06T10:02:23.273Z,244.00
2018-12-06T10:03:23.048Z,236.00
2018-12-06T10:04:23.064Z,184.00
2018-12-06T10:05:23.065Z,192.00
2018-12-06T10:06:23.261Z,176.00
2018-12-06T10:07:23.041Z,184.00
2018-12-06T10:08:23.046Z,232.00
2018-12-06T10:09:23.051Z,196.00
2018-12-06T10:10:23.038Z,176.00
2018-12-06T10:11:23.036Z,204.00
2018-12-06T10:12:23.031Z,212.00
2018-12-06T10:13:23.047Z,192.00
2018-12-06T10:14:23.030Z,196.00
2018-12-06T10:15:23.037Z,216.00
2018-12-06T10:16:23.042Z,212.00
2018-12-06T10:17:23.040Z,220.00
2018-12-06T10:18:23.024Z,208.00
2018-12-06T10:19:23.021Z,224.00
2018-12-06T10:20:23.225Z,240.00
2018-12-06T10:21:23.024Z,220.00
2018-12-06T10:22:23.225Z,228.00
2018-12-06T10:23:23.217Z,228.00
2018-12-06T10:24:23.032Z,264.00
2018-12-06T10:25:23.222Z,276.00
2018-12-06T10:26:23.009Z,292.00
2018-12-06T10:27:22.998Z,300.00
2018-12-06T10:28:23.201Z,264.00
2018-12-06T10:29:22.999Z,284.00
2018-12-06T10:30:22.999Z,272.00
2018-12-06T10:31:23.007Z,288.00
2018-12-06T10:32:22.987Z,292.00
2018-12-06T10:33:23.000Z,260.00
2018-12-06T10:34:22.992Z,236.00
2018-12-06T10:35:22.979Z,244.00
2018-12-06T10:36:22.988Z,268.00
2018-12-06T10:37:22.985Z,296.00
2018-12-06T10:38:23.194Z,296.00
2018-12-06T10:39:22.983Z,344.00
2018-12-06T10:40:22.983Z,348.00
2018-12-06T10:41:22.987Z,340.00
2018-12-06T10:42:22.983Z,364.00
2018-12-06T10:43:22.976Z,344.00
2018-12-06T10:44:22.969Z,344.00
2018-12-06T10:45:22.973Z,280.00
2018-12-06T10:46:22.970Z,216.00
2018-12-06T10:47:22.961Z,196.00
2018-12-06T10:48:22.955Z,244.00
2018-12-06T10:49:22.951Z,164.00
2018-12-06T10:50:22.950Z,192.00
2018-12-06T10:51:22.949Z,200.00
2018-12-06T10:52:22.961Z,188.00
2018-12-06T10:53:23.166Z,200.00
2018-12-06T10:54:22.939Z,240.00
2018-12-06T10:55:22.945Z,224.00
2018-12-06T10:56:22.955Z,244.00
2018-12-06T10:57:22.949Z,252.00
2018-12-06T10:58:22.947Z,244.00
2018-12-06T10:59:22.951Z,208.00
2018-12-06T11:00:22.990Z,220.00
2018-12-06T11:01:22.931Z,204.00
2018-12-06T11:02:23.139Z,192.00
2018-12-06T11:03:22.942Z,248.00
2018-12-06T11:04:22.943Z,272.00
2018-12-06T11:05:22.922Z,244.00
2018-12-06T11:06:23.128Z,232.00
2018-12-06T11:07:22.927Z,224.00
2018-12-06T11:08:22.945Z,216.00
2018-12-06T11:09:22.912Z,260.00
2018-12-06T11:10:22.913Z,284.00
2018-12-06T11:11:22.916Z,280.00
2018-12-06T11:12:22.920Z,284.00
2018-12-06T11:13:22.917Z,260.00
2018-12-06T11:14:22.921Z,244.00
2018-12-06T11:15:22.935Z,240.00
2018-12-06T11:16:22.904Z,244.00
2018-12-06T11:17:22.895Z,256.00
2018-12-06T11:18:23.111Z,188.00
2018-12-06T11:19:22.904Z,212.00
2018-12-06T11:20:22.900Z,192.00
2018-12-06T11:21:22.893Z,200.00
2018-12-06T11:22:22.901Z,212.00
2018-12-06T11:23:22.896Z,208.00
2018-12-06T11:24:22.883Z,204.00
2018-12-06T11:25:22.885Z,204.00
2018-12-06T11:26:22.881Z,220.00
2018-12-06T11:27:22.879Z,204.00
2018-12-06T11:28:23.091Z,160.00
2018-12-06T11:29:22.876Z,144.00
2018-12-06T11:30:22.892Z,140.00
2018-12-06T11:31:22.874Z,128.00
2018-12-06T11:32:23.080Z,168.00
2018-12-06T11:33:22.879Z,228.00
2018-12-06T11:34:22.884Z,180.00
2018-12-06T11:35:22.884Z,196.00
2018-12-06T11:37:22.861Z,204.00
2018-12-06T11:38:22.858Z,228.00
2018-12-06T11:39:22.877Z,248.00
2018-12-06T11:40:23.064Z,252.00
2018-12-06T11:41:22.865Z,268.00
2018-12-06T11:42:22.855Z,284.00
2018-12-06T11:43:22.849Z,288.00
2018-12-06T11:44:22.855Z,232.00
2018-12-06T11:45:22.860Z,204.00
2018-12-06T11:46:22.870Z,184.00
2018-12-06T11:47:22.856Z,152.00
2018-12-06T11:48:26.817Z,168.00
2018-12-06T11:49:23.046Z,164.00
2018-12-06T11:51:22.837Z,148.00
2018-12-06T11:52:22.854Z,148.00
2018-12-06T11:53:22.859Z,140.00
2018-12-06T11:54:22.835Z,132.00
2018-12-06T11:55:23.062Z,120.00
2018-12-06T11:56:22.840Z,104.00
2018-12-06T11:57:22.824Z,96.00
2018-12-06T11:58:22.827Z,96.00
2018-12-06T11:59:22.823Z,96.00
2018-12-06T12:00:22.832Z,100.00
2018-12-06T12:01:22.832Z,116.00
2018-12-06T12:02:23.025Z,140.00
2018-12-06T12:03:22.818Z,120.00
2018-12-06T12:04:22.823Z,136.00
2018-12-06T12:05:22.825Z,160.00
2018-12-06T12:06:22.825Z,152.00
2018-12-06T12:07:22.817Z,156.00
2018-12-06T12:08:22.820Z,160.00
2018-12-06T12:09:22.818Z,140.00
2018-12-06T12:10:22.801Z,120.00
2018-12-06T12:11:23.016Z,132.00
2018-12-06T12:12:22.797Z,144.00
2018-12-06T12:13:22.798Z,140.00
2018-12-06T12:14:22.794Z,156.00
2018-12-06T12:15:22.814Z,156.00
2018-12-06T12:16:22.795Z,152.00
2018-12-06T12:17:22.797Z,152.00
2018-12-06T12:18:22.803Z,140.00
2018-12-06T12:19:22.987Z,148.00
2018-12-06T12:20:22.994Z,148.00
2018-12-06T12:21:22.983Z,136.00
2018-12-06T12:22:22.788Z,144.00
2018-12-06T12:23:22.988Z,164.00
2018-12-06T12:24:22.783Z,188.00
2018-12-06T12:25:22.787Z,224.00
2018-12-06T12:26:22.982Z,244.00
2018-12-06T12:27:22.776Z,240.00
2018-12-06T12:28:22.778Z,260.00
2018-12-06T12:29:22.785Z,272.00
2018-12-06T12:30:22.765Z,272.00
2018-12-06T12:31:22.980Z,280.00
2018-12-06T12:32:22.766Z,280.00
2018-12-06T12:33:22.758Z,264.00
2018-12-06T12:34:22.970Z,264.00
2018-12-06T12:35:22.770Z,324.00
2018-12-06T12:36:22.768Z,356.00
2018-12-06T12:37:22.770Z,352.00
2018-12-06T12:38:22.774Z,364.00
2018-12-06T12:39:22.748Z,344.00
2018-12-06T12:40:22.755Z,316.00
2018-12-06T12:41:22.766Z,316.00
2018-12-06T12:42:22.751Z,356.00
2018-12-06T12:43:22.749Z,356.00
2018-12-06T12:44:22.744Z,376.00
2018-12-06T12:45:22.770Z,388.00
2018-12-06T12:46:22.745Z,392.00
2018-12-06T12:47:22.747Z,412.00
2018-12-06T12:48:22.739Z,420.00
2018-12-06T12:49:22.741Z,456.00
2018-12-06T12:50:22.731Z,504.00
2018-12-06T12:51:22.737Z,492.00
2018-12-06T12:52:22.740Z,480.00
2018-12-06T12:53:23.099Z,524.00
2018-12-06T12:54:22.727Z,532.00
2018-12-06T12:55:22.753Z,528.00
2018-12-06T12:56:22.734Z,516.00
2018-12-06T12:57:22.751Z,548.00
2018-12-06T12:58:22.726Z,552.00
2018-12-06T12:59:22.722Z,576.00
2018-12-06T13:00:22.731Z,624.00
2018-12-06T13:01:22.717Z,644.00
2018-12-06T13:02:22.917Z,600.00